sensor_id;sensor_type;location;lat;lon;timestamp;P1;durP1;ratioP1;P2;durP2;ratioP2
38332;SDS011;25748;46.670;14.272;2022-10-26T00:00:47;4.95;;;1.80;;
38332;SDS011;25748;46.670;14.272;2022-10-26T00:03:14;2.63;;;1.58;;
38332;SDS011;25748;46.670;14.272;2022-10-26T00:05:40;6.97;;;1.63;;
38332;SDS011;25748;46.670;14.272;2022-10-26T00:08:06;5.43;;;1.60;;
38332;SDS011;25748;46.670;14.272;2022-10-26T00:10:35;5.65;;;1.98;;
38332;SDS011;25748;46.670;14.272;2022-10-26T00:13:02;8.20;;;2.13;;
38332;SDS011;25748;46.670;14.272;2022-10-26T00:15:29;4.88;;;1.80;;
38332;SDS011;25748;46.670;14.272;2022-10-26T00:17:55;5.72;;;2.05;;
38332;SDS011;25748;46.670;14.272;2022-10-26T00:20:21;5.30;;;1.88;;
38332;SDS011;25748;46.670;14.272;2022-10-26T00:22:46;3.33;;;1.65;;
38332;SDS011;25748;46.670;14.272;2022-10-26T00:25:12;7.15;;;2.10;;
38332;SDS011;25748;46.670;14.272;2022-10-26T00:27:38;4.75;;;1.38;;
38332;SDS011;25748;46.670;14.272;2022-10-26T00:30:04;4.47;;;2.05;;
38332;SDS011;25748;46.670;14.272;2022-10-26T00:32:30;9.77;;;2.88;;
38332;SDS011;25748;46.670;14.272;2022-10-26T00:34:56;13.88;;;2.97;;
38332;SDS011;25748;46.670;14.272;2022-10-26T00:37:22;11.15;;;1.85;;
38332;SDS011;25748;46.670;14.272;2022-10-26T00:39:48;17.17;;;2.92;;
38332;SDS011;25748;46.670;14.272;2022-10-26T00:42:15;5.95;;;2.35;;
38332;SDS011;25748;46.670;14.272;2022-10-26T00:47:28;11.35;;;3.25;;
38332;SDS011;25748;46.670;14.272;2022-10-26T00:49:57;11.02;;;3.20;;
38332;SDS011;25748;46.670;14.272;2022-10-26T00:52:26;7.95;;;3.13;;
38332;SDS011;25748;46.670;14.272;2022-10-26T00:54:53;10.50;;;3.47;;
38332;SDS011;25748;46.670;14.272;2022-10-26T00:57:19;15.88;;;3.72;;
38332;SDS011;25748;46.670;14.272;2022-10-26T00:59:45;12.65;;;4.78;;
38332;SDS011;25748;46.670;14.272;2022-10-26T01:02:12;21.35;;;4.10;;
38332;SDS011;25748;46.670;14.272;2022-10-26T01:04:37;8.95;;;3.60;;
38332;SDS011;25748;46.670;14.272;2022-10-26T01:07:04;9.50;;;3.28;;
38332;SDS011;25748;46.670;14.272;2022-10-26T01:09:31;10.65;;;3.38;;
38332;SDS011;25748;46.670;14.272;2022-10-26T01:11:57;10.30;;;3.22;;
38332;SDS011;25748;46.670;14.272;2022-10-26T01:14:24;7.20;;;2.67;;
38332;SDS011;25748;46.670;14.272;2022-10-26T01:22:43;7.90;;;2.47;;
38332;SDS011;25748;46.670;14.272;2022-10-26T01:27:58;2.78;;;1.50;;
38332;SDS011;25748;46.670;14.272;2022-10-26T01:30:38;5.53;;;1.45;;
38332;SDS011;25748;46.670;14.272;2022-10-26T01:38:03;7.55;;;1.83;;
38332;SDS011;25748;46.670;14.272;2022-10-26T01:43:03;3.72;;;1.85;;
38332;SDS011;25748;46.670;14.272;2022-10-26T01:45:33;2.65;;;1.77;;
38332;SDS011;25748;46.670;14.272;2022-10-26T01:48:01;7.03;;;1.90;;
38332;SDS011;25748;46.670;14.272;2022-10-26T01:50:28;3.95;;;1.73;;
38332;SDS011;25748;46.670;14.272;2022-10-26T01:52:56;2.53;;;1.40;;
38332;SDS011;25748;46.670;14.272;2022-10-26T02:06:29;14.45;;;2.05;;
38332;SDS011;25748;46.670;14.272;2022-10-26T02:19:42;3.47;;;1.73;;
38332;SDS011;25748;46.670;14.272;2022-10-26T02:22:17;4.38;;;1.60;;
38332;SDS011;25748;46.670;14.272;2022-10-26T02:24:44;5.15;;;1.83;;
38332;SDS011;25748;46.670;14.272;2022-10-26T02:27:14;3.08;;;1.48;;
38332;SDS011;25748;46.670;14.272;2022-10-26T02:29:44;10.70;;;1.90;;
38332;SDS011;25748;46.670;14.272;2022-10-26T02:32:13;6.25;;;1.63;;
38332;SDS011;25748;46.670;14.272;2022-10-26T02:34:39;7.97;;;1.70;;
38332;SDS011;25748;46.670;14.272;2022-10-26T02:37:09;3.72;;;1.60;;
38332;SDS011;25748;46.670;14.272;2022-10-26T02:39:38;7.20;;;1.80;;
38332;SDS011;25748;46.670;14.272;2022-10-26T02:42:05;3.25;;;1.23;;
38332;SDS011;25748;46.670;14.272;2022-10-26T02:44:39;11.02;;;1.98;;
38332;SDS011;25748;46.670;14.272;2022-10-26T02:47:08;12.70;;;1.75;;
38332;SDS011;25748;46.670;14.272;2022-10-26T02:49:34;6.78;;;2.10;;
38332;SDS011;25748;46.670;14.272;2022-10-26T02:52:01;9.07;;;2.22;;
38332;SDS011;25748;46.670;14.272;2022-10-26T02:57:15;7.45;;;2.17;;
38332;SDS011;25748;46.670;14.272;2022-10-26T02:59:44;10.55;;;2.55;;
38332;SDS011;25748;46.670;14.272;2022-10-26T03:02:12;6.53;;;2.53;;
38332;SDS011;25748;46.670;14.272;2022-10-26T03:04:42;6.72;;;2.08;;
38332;SDS011;25748;46.670;14.272;2022-10-26T03:07:08;8.88;;;2.05;;
38332;SDS011;25748;46.670;14.272;2022-10-26T03:09:33;6.10;;;2.20;;
38332;SDS011;25748;46.670;14.272;2022-10-26T03:11:59;6.13;;;1.77;;
38332;SDS011;25748;46.670;14.272;2022-10-26T03:14:25;8.02;;;2.50;;
38332;SDS011;25748;46.670;14.272;2022-10-26T03:16:50;17.38;;;2.40;;
38332;SDS011;25748;46.670;14.272;2022-10-26T03:19:16;7.30;;;2.45;;
38332;SDS011;25748;46.670;14.272;2022-10-26T03:21:42;15.70;;;3.17;;
38332;SDS011;25748;46.670;14.272;2022-10-26T03:24:08;9.82;;;2.83;;
38332;SDS011;25748;46.670;14.272;2022-10-26T03:26:33;9.52;;;3.50;;
38332;SDS011;25748;46.670;14.272;2022-10-26T03:28:59;14.43;;;3.92;;
38332;SDS011;25748;46.670;14.272;2022-10-26T03:31:25;14.90;;;3.58;;
38332;SDS011;25748;46.670;14.272;2022-10-26T03:33:51;14.63;;;3.75;;
38332;SDS011;25748;46.670;14.272;2022-10-26T03:36:16;13.25;;;3.03;;
38332;SDS011;25748;46.670;14.272;2022-10-26T03:38:42;14.25;;;3.50;;
38332;SDS011;25748;46.670;14.272;2022-10-26T03:41:08;13.18;;;3.63;;
38332;SDS011;25748;46.670;14.272;2022-10-26T03:43:33;9.85;;;3.28;;
38332;SDS011;25748;46.670;14.272;2022-10-26T03:45:59;10.82;;;3.40;;
38332;SDS011;25748;46.670;14.272;2022-10-26T03:48:25;11.18;;;3.30;;
38332;SDS011;25748;46.670;14.272;2022-10-26T03:50:50;14.27;;;3.53;;
38332;SDS011;25748;46.670;14.272;2022-10-26T03:53:16;18.80;;;3.95;;
38332;SDS011;25748;46.670;14.272;2022-10-26T03:55:45;14.13;;;3.58;;
38332;SDS011;25748;46.670;14.272;2022-10-26T03:58:10;9.88;;;2.85;;
38332;SDS011;25748;46.670;14.272;2022-10-26T04:00:36;19.42;;;3.80;;
38332;SDS011;25748;46.670;14.272;2022-10-26T04:03:02;10.10;;;3.22;;
38332;SDS011;25748;46.670;14.272;2022-10-26T04:05:28;11.98;;;3.28;;
38332;SDS011;25748;46.670;14.272;2022-10-26T04:07:57;13.27;;;2.83;;
38332;SDS011;25748;46.670;14.272;2022-10-26T04:10:25;11.68;;;2.72;;
38332;SDS011;25748;46.670;14.272;2022-10-26T04:12:51;8.15;;;2.65;;
38332;SDS011;25748;46.670;14.272;2022-10-26T04:15:18;9.20;;;3.88;;
38332;SDS011;25748;46.670;14.272;2022-10-26T04:17:45;11.45;;;3.63;;
38332;SDS011;25748;46.670;14.272;2022-10-26T04:20:11;10.73;;;2.25;;
38332;SDS011;25748;46.670;14.272;2022-10-26T04:22:36;7.20;;;2.53;;
38332;SDS011;25748;46.670;14.272;2022-10-26T04:25:03;12.02;;;2.95;;
38332;SDS011;25748;46.670;14.272;2022-10-26T04:27:29;12.60;;;3.13;;
38332;SDS011;25748;46.670;14.272;2022-10-26T04:29:55;15.68;;;3.72;;
38332;SDS011;25748;46.670;14.272;2022-10-26T04:32:20;12.40;;;3.40;;
38332;SDS011;25748;46.670;14.272;2022-10-26T04:34:46;14.95;;;3.63;;
38332;SDS011;25748;46.670;14.272;2022-10-26T04:37:12;13.88;;;3.20;;
38332;SDS011;25748;46.670;14.272;2022-10-26T04:39:37;15.57;;;4.00;;
38332;SDS011;25748;46.670;14.272;2022-10-26T04:42:03;28.33;;;4.45;;
38332;SDS011;25748;46.670;14.272;2022-10-26T04:44:29;12.43;;;3.83;;
38332;SDS011;25748;46.670;14.272;2022-10-26T04:46:55;17.00;;;4.55;;
38332;SDS011;25748;46.670;14.272;2022-10-26T04:49:20;12.55;;;3.92;;
38332;SDS011;25748;46.670;14.272;2022-10-26T04:51:46;15.02;;;4.78;;
38332;SDS011;25748;46.670;14.272;2022-10-26T04:54:12;11.70;;;3.33;;
38332;SDS011;25748;46.670;14.272;2022-10-26T04:56:38;15.85;;;3.40;;
38332;SDS011;25748;46.670;14.272;2022-10-26T04:59:03;9.43;;;2.55;;
38332;SDS011;25748;46.670;14.272;2022-10-26T05:01:29;17.17;;;3.85;;
38332;SDS011;25748;46.670;14.272;2022-10-26T05:03:55;10.85;;;3.05;;
38332;SDS011;25748;46.670;14.272;2022-10-26T05:06:21;7.20;;;2.88;;
38332;SDS011;25748;46.670;14.272;2022-10-26T05:08:47;7.75;;;2.78;;
38332;SDS011;25748;46.670;14.272;2022-10-26T05:11:13;11.88;;;1.88;;
38332;SDS011;25748;46.670;14.272;2022-10-26T05:13:39;4.63;;;1.98;;
38332;SDS011;25748;46.670;14.272;2022-10-26T05:16:05;8.60;;;1.60;;
38332;SDS011;25748;46.670;14.272;2022-10-26T05:18:31;13.52;;;2.20;;
38332;SDS011;25748;46.670;14.272;2022-10-26T05:20:56;5.07;;;2.20;;
38332;SDS011;25748;46.670;14.272;2022-10-26T05:23:22;13.80;;;2.60;;
38332;SDS011;25748;46.670;14.272;2022-10-26T05:25:48;11.88;;;3.13;;
38332;SDS011;25748;46.670;14.272;2022-10-26T05:28:14;9.13;;;3.03;;
38332;SDS011;25748;46.670;14.272;2022-10-26T05:30:41;13.38;;;2.60;;
38332;SDS011;25748;46.670;14.272;2022-10-26T05:33:08;8.82;;;2.92;;
38332;SDS011;25748;46.670;14.272;2022-10-26T05:35:35;11.85;;;2.35;;
38332;SDS011;25748;46.670;14.272;2022-10-26T05:38:34;14.18;;;3.00;;
38332;SDS011;25748;46.670;14.272;2022-10-26T05:40:53;8.13;;;2.47;;
38332;SDS011;25748;46.670;14.272;2022-10-26T05:43:20;7.35;;;2.45;;
38332;SDS011;25748;46.670;14.272;2022-10-26T05:45:48;9.85;;;3.08;;
38332;SDS011;25748;46.670;14.272;2022-10-26T05:48:14;12.10;;;1.80;;
38332;SDS011;25748;46.670;14.272;2022-10-26T05:50:40;7.60;;;2.53;;
38332;SDS011;25748;46.670;14.272;2022-10-26T05:53:06;9.48;;;2.92;;
38332;SDS011;25748;46.670;14.272;2022-10-26T05:55:32;10.02;;;2.90;;
38332;SDS011;25748;46.670;14.272;2022-10-26T05:57:58;11.30;;;2.83;;
38332;SDS011;25748;46.670;14.272;2022-10-26T06:00:25;10.93;;;2.58;;
38332;SDS011;25748;46.670;14.272;2022-10-26T06:08:20;7.40;;;1.95;;
38332;SDS011;25748;46.670;14.272;2022-10-26T06:10:47;9.82;;;2.67;;
38332;SDS011;25748;46.670;14.272;2022-10-26T06:13:14;11.88;;;2.40;;
38332;SDS011;25748;46.670;14.272;2022-10-26T06:15:43;9.68;;;3.38;;
38332;SDS011;25748;46.670;14.272;2022-10-26T06:18:17;9.63;;;2.78;;
38332;SDS011;25748;46.670;14.272;2022-10-26T06:20:48;8.52;;;2.25;;
38332;SDS011;25748;46.670;14.272;2022-10-26T06:23:44;9.23;;;1.85;;
38332;SDS011;25748;46.670;14.272;2022-10-26T06:31:37;4.53;;;1.95;;
38332;SDS011;25748;46.670;14.272;2022-10-26T06:34:03;3.38;;;1.67;;
38332;SDS011;25748;46.670;14.272;2022-10-26T06:36:29;3.95;;;1.67;;
38332;SDS011;25748;46.670;14.272;2022-10-26T06:39:03;8.38;;;1.33;;
38332;SDS011;25748;46.670;14.272;2022-10-26T06:41:34;3.30;;;1.52;;
38332;SDS011;25748;46.670;14.272;2022-10-26T06:44:01;3.90;;;1.27;;
38332;SDS011;25748;46.670;14.272;2022-10-26T06:52:01;4.53;;;1.40;;
38332;SDS011;25748;46.670;14.272;2022-10-26T06:57:17;5.20;;;2.33;;
38332;SDS011;25748;46.670;14.272;2022-10-26T07:02:13;6.53;;;3.45;;
38332;SDS011;25748;46.670;14.272;2022-10-26T07:04:42;5.93;;;3.08;;
38332;SDS011;25748;46.670;14.272;2022-10-26T07:07:13;4.25;;;2.00;;
38332;SDS011;25748;46.670;14.272;2022-10-26T07:09:44;3.38;;;1.00;;
38332;SDS011;25748;46.670;14.272;2022-10-26T07:12:09;4.28;;;1.65;;
38332;SDS011;25748;46.670;14.272;2022-10-26T07:14:35;2.53;;;1.20;;
38332;SDS011;25748;46.670;14.272;2022-10-26T07:17:01;2.05;;;1.23;;
38332;SDS011;25748;46.670;14.272;2022-10-26T07:19:26;2.53;;;1.00;;
38332;SDS011;25748;46.670;14.272;2022-10-26T07:21:53;4.13;;;1.70;;
38332;SDS011;25748;46.670;14.272;2022-10-26T07:24:20;8.52;;;1.85;;
38332;SDS011;25748;46.670;14.272;2022-10-26T07:26:47;4.85;;;2.35;;
38332;SDS011;25748;46.670;14.272;2022-10-26T07:29:12;26.70;;;7.88;;
38332;SDS011;25748;46.670;14.272;2022-10-26T07:31:40;10.23;;;2.90;;
38332;SDS011;25748;46.670;14.272;2022-10-26T07:34:06;4.78;;;2.63;;
38332;SDS011;25748;46.670;14.272;2022-10-26T07:36:31;4.82;;;1.45;;
38332;SDS011;25748;46.670;14.272;2022-10-26T07:39:00;3.85;;;1.42;;
38332;SDS011;25748;46.670;14.272;2022-10-26T07:41:27;1.98;;;0.90;;
38332;SDS011;25748;46.670;14.272;2022-10-26T07:43:52;3.65;;;1.50;;
38332;SDS011;25748;46.670;14.272;2022-10-26T07:46:18;2.63;;;1.23;;
38332;SDS011;25748;46.670;14.272;2022-10-26T07:48:44;3.30;;;2.28;;
38332;SDS011;25748;46.670;14.272;2022-10-26T07:51:09;1.63;;;1.15;;
38332;SDS011;25748;46.670;14.272;2022-10-26T07:53:35;7.78;;;1.35;;
38332;SDS011;25748;46.670;14.272;2022-10-26T07:56:04;5.43;;;1.33;;
38332;SDS011;25748;46.670;14.272;2022-10-26T07:58:30;2.30;;;1.42;;
38332;SDS011;25748;46.670;14.272;2022-10-26T08:00:56;4.82;;;1.40;;
38332;SDS011;25748;46.670;14.272;2022-10-26T08:03:22;4.18;;;1.63;;
38332;SDS011;25748;46.670;14.272;2022-10-26T08:05:48;7.65;;;2.03;;
38332;SDS011;25748;46.670;14.272;2022-10-26T08:08:20;1.83;;;0.88;;
38332;SDS011;25748;46.670;14.272;2022-10-26T08:10:46;2.45;;;0.98;;
38332;SDS011;25748;46.670;14.272;2022-10-26T08:13:12;2.15;;;1.35;;
38332;SDS011;25748;46.670;14.272;2022-10-26T08:15:39;2.63;;;1.15;;
38332;SDS011;25748;46.670;14.272;2022-10-26T08:18:05;1.85;;;0.95;;
38332;SDS011;25748;46.670;14.272;2022-10-26T08:20:31;1.95;;;0.90;;
38332;SDS011;25748;46.670;14.272;2022-10-26T08:22:57;4.88;;;0.70;;
38332;SDS011;25748;46.670;14.272;2022-10-26T08:25:25;3.97;;;0.70;;
38332;SDS011;25748;46.670;14.272;2022-10-26T08:27:51;4.85;;;0.63;;
38332;SDS011;25748;46.670;14.272;2022-10-26T08:30:18;3.00;;;0.63;;
38332;SDS011;25748;46.670;14.272;2022-10-26T08:32:47;2.92;;;0.55;;
38332;SDS011;25748;46.670;14.272;2022-10-26T08:35:12;1.67;;;0.50;;
38332;SDS011;25748;46.670;14.272;2022-10-26T08:37:38;1.55;;;0.60;;
38332;SDS011;25748;46.670;14.272;2022-10-26T08:40:08;2.45;;;0.52;;
38332;SDS011;25748;46.670;14.272;2022-10-26T08:42:42;0.93;;;0.50;;
38332;SDS011;25748;46.670;14.272;2022-10-26T08:47:52;2.20;;;0.70;;
38332;SDS011;25748;46.670;14.272;2022-10-26T08:50:43;1.52;;;0.50;;
38332;SDS011;25748;46.670;14.272;2022-10-26T08:56:25;4.15;;;0.85;;
38332;SDS011;25748;46.670;14.272;2022-10-26T08:58:57;4.13;;;0.75;;
38332;SDS011;25748;46.670;14.272;2022-10-26T09:01:30;1.90;;;0.95;;
38332;SDS011;25748;46.670;14.272;2022-10-26T09:03:56;6.22;;;1.00;;
38332;SDS011;25748;46.670;14.272;2022-10-26T09:06:41;1.55;;;1.00;;
38332;SDS011;25748;46.670;14.272;2022-10-26T09:15:30;2.72;;;0.85;;
38332;SDS011;25748;46.670;14.272;2022-10-26T09:18:15;1.45;;;0.60;;
38332;SDS011;25748;46.670;14.272;2022-10-26T09:25:59;3.45;;;0.80;;
38332;SDS011;25748;46.670;14.272;2022-10-26T09:28:28;1.33;;;0.85;;
38332;SDS011;25748;46.670;14.272;2022-10-26T09:31:00;3.25;;;1.08;;
38332;SDS011;25748;46.670;14.272;2022-10-26T09:33:28;7.68;;;1.05;;
38332;SDS011;25748;46.670;14.272;2022-10-26T09:36:09;2.38;;;1.00;;
38332;SDS011;25748;46.670;14.272;2022-10-26T09:38:57;2.53;;;1.20;;
38332;SDS011;25748;46.670;14.272;2022-10-26T09:44:17;3.33;;;0.77;;
38332;SDS011;25748;46.670;14.272;2022-10-26T09:49:34;2.33;;;1.25;;
38332;SDS011;25748;46.670;14.272;2022-10-26T09:52:05;1.90;;;1.05;;
38332;SDS011;25748;46.670;14.272;2022-10-26T09:54:31;1.70;;;0.93;;
38332;SDS011;25748;46.670;14.272;2022-10-26T09:56:57;1.27;;;0.60;;
38332;SDS011;25748;46.670;14.272;2022-10-26T09:59:26;1.92;;;0.88;;
38332;SDS011;25748;46.670;14.272;2022-10-26T10:01:57;2.28;;;0.98;;
38332;SDS011;25748;46.670;14.272;2022-10-26T10:04:23;2.20;;;0.80;;
38332;SDS011;25748;46.670;14.272;2022-10-26T10:09:20;2.88;;;0.88;;
38332;SDS011;25748;46.670;14.272;2022-10-26T10:14:25;2.25;;;0.90;;
38332;SDS011;25748;46.670;14.272;2022-10-26T10:16:59;0.70;;;0.50;;
38332;SDS011;25748;46.670;14.272;2022-10-26T10:19:27;1.50;;;0.88;;
38332;SDS011;25748;46.670;14.272;2022-10-26T10:22:11;9.57;;;1.27;;
38332;SDS011;25748;46.670;14.272;2022-10-26T10:25:02;4.63;;;0.60;;
38332;SDS011;25748;46.670;14.272;2022-10-26T10:27:28;2.83;;;0.80;;
38332;SDS011;25748;46.670;14.272;2022-10-26T10:30:03;1.40;;;0.77;;
38332;SDS011;25748;46.670;14.272;2022-10-26T10:33:08;0.68;;;0.55;;
38332;SDS011;25748;46.670;14.272;2022-10-26T10:35:35;1.17;;;0.57;;
38332;SDS011;25748;46.670;14.272;2022-10-26T10:38:04;0.90;;;0.50;;
38332;SDS011;25748;46.670;14.272;2022-10-26T10:40:30;4.70;;;0.68;;
38332;SDS011;25748;46.670;14.272;2022-10-26T10:43:10;1.33;;;0.60;;
38332;SDS011;25748;46.670;14.272;2022-10-26T10:45:37;1.52;;;0.73;;
38332;SDS011;25748;46.670;14.272;2022-10-26T10:50:37;3.45;;;0.70;;
38332;SDS011;25748;46.670;14.272;2022-10-26T10:53:18;0.90;;;0.60;;
38332;SDS011;25748;46.670;14.272;2022-10-26T11:01:12;2.22;;;0.88;;
38332;SDS011;25748;46.670;14.272;2022-10-26T11:06:33;1.25;;;0.60;;
38332;SDS011;25748;46.670;14.272;2022-10-26T11:09:04;2.25;;;0.57;;
38332;SDS011;25748;46.670;14.272;2022-10-26T11:11:38;1.02;;;0.60;;
38332;SDS011;25748;46.670;14.272;2022-10-26T11:14:17;1.98;;;0.40;;
38332;SDS011;25748;46.670;14.272;2022-10-26T11:17:07;1.35;;;0.70;;
38332;SDS011;25748;46.670;14.272;2022-10-26T11:20:04;4.00;;;0.85;;
38332;SDS011;25748;46.670;14.272;2022-10-26T11:22:38;1.50;;;0.80;;
38332;SDS011;25748;46.670;14.272;2022-10-26T11:25:12;1.15;;;0.70;;
38332;SDS011;25748;46.670;14.272;2022-10-26T11:27:50;1.02;;;0.55;;
38332;SDS011;25748;46.670;14.272;2022-10-26T11:30:20;1.15;;;0.52;;
38332;SDS011;25748;46.670;14.272;2022-10-26T11:35:17;3.47;;;0.98;;
38332;SDS011;25748;46.670;14.272;2022-10-26T11:49:33;1.75;;;0.65;;
38332;SDS011;25748;46.670;14.272;2022-10-26T11:52:08;1.25;;;0.60;;
38332;SDS011;25748;46.670;14.272;2022-10-26T11:54:43;1.88;;;0.70;;
38332;SDS011;25748;46.670;14.272;2022-10-26T11:57:13;1.00;;;0.52;;
38332;SDS011;25748;46.670;14.272;2022-10-26T12:02:55;2.25;;;0.60;;
38332;SDS011;25748;46.670;14.272;2022-10-26T12:08:05;0.90;;;0.50;;
38332;SDS011;25748;46.670;14.272;2022-10-26T12:10:40;1.70;;;0.60;;
38332;SDS011;25748;46.670;14.272;2022-10-26T12:16:08;1.50;;;0.50;;
38332;SDS011;25748;46.670;14.272;2022-10-26T12:21:14;1.42;;;0.57;;
38332;SDS011;25748;46.670;14.272;2022-10-26T12:23:57;4.28;;;0.60;;
38332;SDS011;25748;46.670;14.272;2022-10-26T12:39:32;0.88;;;0.50;;
38332;SDS011;25748;46.670;14.272;2022-10-26T12:47:09;2.28;;;0.70;;
38332;SDS011;25748;46.670;14.272;2022-10-26T13:01:45;2.53;;;0.50;;
38332;SDS011;25748;46.670;14.272;2022-10-26T13:09:29;1.48;;;0.70;;
38332;SDS011;25748;46.670;14.272;2022-10-26T13:12:03;6.15;;;0.68;;
38332;SDS011;25748;46.670;14.272;2022-10-26T13:14:39;2.20;;;0.60;;
38332;SDS011;25748;46.670;14.272;2022-10-26T13:17:28;2.67;;;0.40;;
38332;SDS011;25748;46.670;14.272;2022-10-26T13:20:00;2.72;;;0.55;;
38332;SDS011;25748;46.670;14.272;2022-10-26T13:22:31;2.00;;;0.75;;
38332;SDS011;25748;46.670;14.272;2022-10-26T13:24:59;2.72;;;0.88;;
38332;SDS011;25748;46.670;14.272;2022-10-26T13:32:34;1.90;;;0.70;;
38332;SDS011;25748;46.670;14.272;2022-10-26T13:35:03;2.38;;;0.63;;
38332;SDS011;25748;46.670;14.272;2022-10-26T13:37:34;4.60;;;0.98;;
38332;SDS011;25748;46.670;14.272;2022-10-26T13:40:03;1.92;;;0.80;;
38332;SDS011;25748;46.670;14.272;2022-10-26T13:42:38;1.02;;;0.63;;
38332;SDS011;25748;46.670;14.272;2022-10-26T13:45:19;2.05;;;0.77;;
38332;SDS011;25748;46.670;14.272;2022-10-26T13:50:53;1.92;;;0.77;;
38332;SDS011;25748;46.670;14.272;2022-10-26T14:01:11;1.50;;;0.80;;
38332;SDS011;25748;46.670;14.272;2022-10-26T14:03:40;1.55;;;0.52;;
38332;SDS011;25748;46.670;14.272;2022-10-26T14:06:09;1.98;;;0.70;;
38332;SDS011;25748;46.670;14.272;2022-10-26T14:08:42;5.25;;;0.90;;
38332;SDS011;25748;46.670;14.272;2022-10-26T14:11:17;1.20;;;0.70;;
38332;SDS011;25748;46.670;14.272;2022-10-26T14:13:51;1.10;;;0.65;;
38332;SDS011;25748;46.670;14.272;2022-10-26T14:16:17;1.25;;;0.40;;
38332;SDS011;25748;46.670;14.272;2022-10-26T14:18:47;1.15;;;0.65;;
38332;SDS011;25748;46.670;14.272;2022-10-26T14:21:17;4.50;;;0.75;;
38332;SDS011;25748;46.670;14.272;2022-10-26T14:26:20;2.03;;;0.83;;
38332;SDS011;25748;46.670;14.272;2022-10-26T14:28:52;1.52;;;0.60;;
38332;SDS011;25748;46.670;14.272;2022-10-26T14:31:23;2.50;;;0.70;;
38332;SDS011;25748;46.670;14.272;2022-10-26T14:33:53;0.82;;;0.50;;
38332;SDS011;25748;46.670;14.272;2022-10-26T14:36:25;2.55;;;0.60;;
38332;SDS011;25748;46.670;14.272;2022-10-26T14:39:01;2.33;;;0.70;;
38332;SDS011;25748;46.670;14.272;2022-10-26T14:41:38;2.35;;;0.73;;
38332;SDS011;25748;46.670;14.272;2022-10-26T14:44:05;1.90;;;0.73;;
38332;SDS011;25748;46.670;14.272;2022-10-26T14:46:41;1.77;;;0.63;;
38332;SDS011;25748;46.670;14.272;2022-10-26T14:49:12;1.35;;;0.70;;
38332;SDS011;25748;46.670;14.272;2022-10-26T14:51:45;1.60;;;0.55;;
38332;SDS011;25748;46.670;14.272;2022-10-26T14:54:21;1.77;;;0.80;;
38332;SDS011;25748;46.670;14.272;2022-10-26T14:56:51;1.05;;;0.68;;
38332;SDS011;25748;46.670;14.272;2022-10-26T15:04:33;1.30;;;0.65;;
38332;SDS011;25748;46.670;14.272;2022-10-26T15:07:22;1.38;;;0.70;;
38332;SDS011;25748;46.670;14.272;2022-10-26T15:09:48;1.52;;;0.90;;
38332;SDS011;25748;46.670;14.272;2022-10-26T15:12:36;1.55;;;0.80;;
38332;SDS011;25748;46.670;14.272;2022-10-26T15:17:53;2.50;;;0.90;;
38332;SDS011;25748;46.670;14.272;2022-10-26T15:20:21;4.07;;;1.48;;
38332;SDS011;25748;46.670;14.272;2022-10-26T15:22:50;4.93;;;1.10;;
38332;SDS011;25748;46.670;14.272;2022-10-26T15:25:22;1.50;;;0.70;;
38332;SDS011;25748;46.670;14.272;2022-10-26T15:27:50;1.42;;;0.75;;
38332;SDS011;25748;46.670;14.272;2022-10-26T15:30:17;3.33;;;0.65;;
38332;SDS011;25748;46.670;14.272;2022-10-26T15:32:43;1.20;;;0.55;;
38332;SDS011;25748;46.670;14.272;2022-10-26T15:37:44;1.50;;;0.70;;
38332;SDS011;25748;46.670;14.272;2022-10-26T15:40:11;1.70;;;0.70;;
38332;SDS011;25748;46.670;14.272;2022-10-26T15:42:38;9.30;;;0.70;;
38332;SDS011;25748;46.670;14.272;2022-10-26T15:45:16;1.35;;;0.70;;
38332;SDS011;25748;46.670;14.272;2022-10-26T15:47:47;8.00;;;0.85;;
38332;SDS011;25748;46.670;14.272;2022-10-26T15:50:17;3.47;;;0.70;;
38332;SDS011;25748;46.670;14.272;2022-10-26T15:52:44;13.98;;;1.00;;
38332;SDS011;25748;46.670;14.272;2022-10-26T15:55:10;4.05;;;1.15;;
38332;SDS011;25748;46.670;14.272;2022-10-26T15:57:36;2.42;;;0.50;;
38332;SDS011;25748;46.670;14.272;2022-10-26T16:00:03;3.72;;;0.70;;
38332;SDS011;25748;46.670;14.272;2022-10-26T16:02:30;6.35;;;0.80;;
38332;SDS011;25748;46.670;14.272;2022-10-26T16:04:58;1.17;;;0.88;;
38332;SDS011;25748;46.670;14.272;2022-10-26T16:07:23;1.98;;;0.80;;
38332;SDS011;25748;46.670;14.272;2022-10-26T16:09:51;7.05;;;0.82;;
38332;SDS011;25748;46.670;14.272;2022-10-26T16:12:17;1.40;;;0.73;;
38332;SDS011;25748;46.670;14.272;2022-10-26T16:14:42;1.95;;;0.60;;
38332;SDS011;25748;46.670;14.272;2022-10-26T16:17:08;9.32;;;1.00;;
38332;SDS011;25748;46.670;14.272;2022-10-26T16:19:34;3.10;;;1.25;;
38332;SDS011;25748;46.670;14.272;2022-10-26T16:22:00;1.58;;;0.80;;
38332;SDS011;25748;46.670;14.272;2022-10-26T16:24:26;2.80;;;0.70;;
38332;SDS011;25748;46.670;14.272;2022-10-26T16:26:53;1.60;;;1.20;;
38332;SDS011;25748;46.670;14.272;2022-10-26T16:29:19;1.58;;;0.82;;
38332;SDS011;25748;46.670;14.272;2022-10-26T16:31:45;3.15;;;0.80;;
38332;SDS011;25748;46.670;14.272;2022-10-26T16:34:11;8.55;;;0.90;;
38332;SDS011;25748;46.670;14.272;2022-10-26T16:36:37;4.72;;;1.25;;
38332;SDS011;25748;46.670;14.272;2022-10-26T16:39:03;2.28;;;1.02;;
38332;SDS011;25748;46.670;14.272;2022-10-26T16:41:29;2.10;;;1.20;;
38332;SDS011;25748;46.670;14.272;2022-10-26T16:43:56;3.15;;;1.10;;
38332;SDS011;25748;46.670;14.272;2022-10-26T16:46:22;2.95;;;1.10;;
38332;SDS011;25748;46.670;14.272;2022-10-26T16:48:48;3.55;;;0.85;;
38332;SDS011;25748;46.670;14.272;2022-10-26T16:51:21;2.22;;;0.80;;
38332;SDS011;25748;46.670;14.272;2022-10-26T16:53:51;6.13;;;0.90;;
38332;SDS011;25748;46.670;14.272;2022-10-26T16:56:19;3.08;;;0.70;;
38332;SDS011;25748;46.670;14.272;2022-10-26T16:58:46;7.68;;;0.77;;
38332;SDS011;25748;46.670;14.272;2022-10-26T17:01:12;4.13;;;0.95;;
38332;SDS011;25748;46.670;14.272;2022-10-26T17:03:42;6.30;;;0.90;;
38332;SDS011;25748;46.670;14.272;2022-10-26T17:06:08;7.88;;;2.30;;
38332;SDS011;25748;46.670;14.272;2022-10-26T17:08:34;1.95;;;1.02;;
38332;SDS011;25748;46.670;14.272;2022-10-26T17:11:01;3.78;;;1.10;;
38332;SDS011;25748;46.670;14.272;2022-10-26T17:16:01;2.70;;;1.10;;
38332;SDS011;25748;46.670;14.272;2022-10-26T17:18:28;4.10;;;1.13;;
38332;SDS011;25748;46.670;14.272;2022-10-26T17:20:54;4.72;;;1.23;;
38332;SDS011;25748;46.670;14.272;2022-10-26T17:23:20;2.13;;;1.60;;
38332;SDS011;25748;46.670;14.272;2022-10-26T17:25:46;4.15;;;1.40;;
38332;SDS011;25748;46.670;14.272;2022-10-26T17:28:12;5.97;;;1.40;;
38332;SDS011;25748;46.670;14.272;2022-10-26T17:30:38;4.07;;;1.13;;
38332;SDS011;25748;46.670;14.272;2022-10-26T17:33:04;5.72;;;1.88;;
38332;SDS011;25748;46.670;14.272;2022-10-26T17:35:33;4.82;;;1.90;;
38332;SDS011;25748;46.670;14.272;2022-10-26T17:37:59;5.05;;;1.70;;
38332;SDS011;25748;46.670;14.272;2022-10-26T17:40:25;2.22;;;1.25;;
38332;SDS011;25748;46.670;14.272;2022-10-26T17:42:51;3.05;;;1.55;;
38332;SDS011;25748;46.670;14.272;2022-10-26T17:45:17;6.80;;;1.48;;
38332;SDS011;25748;46.670;14.272;2022-10-26T17:47:43;9.85;;;1.60;;
38332;SDS011;25748;46.670;14.272;2022-10-26T17:50:09;3.03;;;1.30;;
38332;SDS011;25748;46.670;14.272;2022-10-26T17:52:35;4.07;;;1.50;;
38332;SDS011;25748;46.670;14.272;2022-10-26T17:55:00;4.28;;;1.35;;
38332;SDS011;25748;46.670;14.272;2022-10-26T17:57:26;1.67;;;1.10;;